Nearby METAR Reports

 

KIND - Indianapolis, Indiana, USA
Distance from station: SW 6mi, 9km
Updated: Nov 14 2019 4:54pm
Mostly Cloudy
Mostly Cloudy
 Wind from NW
Wind: NW 7 mph , 11 km/h
Temperature: 37°F , 3°C
Wind Chill: 32°F , 0°C
Dew Point: 25°F , -4°C
Humidity: 60%
Barometer: 30.26 inHg , 1024.7 hPa
Clouds: Mostly Cloudy
Visibility: 10 miles , 16 km
Cloud details: Mostly Cloudy 3600 ft
2019/11/14 21:54 KIND 142154Z 32006KT 10SM BKN036 03/M04 A3026 RMK AO2 SLP253 T00331039
KEYE - Indianapolis, Indiana, USA
Distance from station: NW 5mi, 8km
Updated: Nov 14 2019 4:53pm
Overcast
Overcast
 Wind from NW
Wind: NW 8 mph , 13 km/h
Temperature: 37°F , 3°C
Wind Chill: 31°F , -1°C
Dew Point: 25°F , -4°C
Humidity: 60%
Barometer: 30.25 inHg , 1024.4 hPa
Clouds: Overcast
Visibility: 10 miles , 16 km
Cloud details: Overcast 3600 ft
2019/11/14 21:53 KEYE 142153Z AUTO 31007KT 10SM OVC036 03/M04 A3025 RMK AO2 SLP252 T00281044
 
KTYQ - Indianapolis Exc, Indiana, USA
Distance from station: N 17mi, 28km
Updated: Nov 14 2019 4:55pm
Overcast
Overcast
 Wind from NW
Wind: NW 6 mph , 9 km/h
Temperature: 34°F , 1°C
Wind Chill: 29°F , -2°C
Dew Point: 25°F , -4°C
Humidity: 70%
Barometer: 30.27 inHg , 1025.1 hPa
Clouds: Overcast
Visibility: 10 miles , 16 km
Cloud details: Overcast 2700 ft
2019/11/14 21:55 KTYQ 142155Z AUTO 31005KT 10SM OVC027 01/M04 A3027 RMK AO2 T00051040
KGEZ - Shelbyville, Indiana, USA
Distance from station: ESE 27mi, 43km
Updated: Nov 14 2019 4:53pm
Overcast
Overcast
 Wind from W
Wind: W 5 mph , 7 km/h
Temperature: 39°F , 4°C
Wind Chill: 35°F , 2°C
Dew Point: 25°F , -4°C
Humidity: 56%
Barometer: 30.24 inHg , 1024 hPa
Clouds: Overcast
Visibility: 10 miles , 16 km
Cloud details: Overcast 4000 ft
2019/11/14 21:53 KGEZ 142153Z AUTO 27004KT 10SM OVC040 04/M04 A3024 RMK AO2 SLP249 T00441044
 
KAID - Anderson Municip, Indiana, USA
Distance from station: NE 40mi, 64km
Updated: Nov 14 2019 3:59pm
NOT Current
Overcast
Overcast
 Wind from WNW
Wind: WNW 9 mph , 15 km/h
Temperature: 37°F , 3°C
Wind Chill: 30°F , -1°C
Dew Point: 25°F , -4°C
Humidity: 60%
Barometer: 30.24 inHg , 1024 hPa
Clouds: Overcast
Visibility: 10 miles , 16 km
Cloud details: Overcast 3900 ft
2019/11/14 20:59 KAID 142059Z 29008KT 10SM OVC039 03/M04 A3024
KBAK - Columbus/Balkala, Indiana, USA
Distance from station: SSE 40mi, 64km
Updated: Nov 14 2019 4:45pm
Overcast
Overcast
 Wind from calm
Wind: Calm
Temperature: 41°F , 5°C
Dew Point: 25°F , -4°C
Humidity: 53%
Barometer: 30.26 inHg , 1024.7 hPa
Clouds: Overcast
Visibility: 10 miles , 16 km
Cloud details: Overcast 4500 ft
2019/11/14 21:45 KBAK 142145Z 00000KT 10SM OVC045 05/M04 A3026
 
KBMG - Bloomington, Indiana, USA
Distance from station: SSW 48mi, 78km
Updated: Nov 14 2019 4:53pm
Clear
Clear
 Wind from WSW
Wind: WSW 7 mph , 11 km/h
Temperature: 39°F , 4°C
Wind Chill: 34°F , 1°C
Dew Point: 25°F , -4°C
Humidity: 56%
Barometer: 30.26 inHg , 1024.7 hPa
Clouds: Clear
Visibility: 10 miles , 16 km
2019/11/14 21:53 KBMG 142153Z AUTO 25006KT 10SM CLR 04/M04 A3026 RMK AO2 SLP252 T00441044
KOKK - Kokomo, Indiana, USA
Distance from station: N 53mi, 85km
Updated: Nov 14 2019 4:56pm
Overcast
Overcast
 Wind from W
Wind: W 7 mph , 11 km/h
Temperature: 34°F , 1°C
Wind Chill: 28°F , -2°C
Dew Point: 27°F , -3°C
Humidity: 75%
Barometer: 30.26 inHg , 1024.7 hPa
Clouds: Overcast
Visibility: 10 miles , 16 km
Cloud details: Overcast 2500 ft
2019/11/14 21:56 KOKK 142156Z AUTO 28006KT 10SM OVC025 01/M03 A3026 RMK AO2 SLP259 T00061033 FZRANO